sensor_id;sensor_type;location;lat;lon;timestamp;P1;durP1;ratioP1;P2;durP2;ratioP2
70071;SDS011;57434;42.794;23.302;2022-10-14T00:01:05;15.20;;;6.15;;
70071;SDS011;57434;42.794;23.302;2022-10-14T00:03:36;11.00;;;5.90;;
70071;SDS011;57434;42.794;23.302;2022-10-14T00:06:05;11.27;;;5.78;;
70071;SDS011;57434;42.794;23.302;2022-10-14T00:08:36;12.98;;;5.50;;
70071;SDS011;57434;42.794;23.302;2022-10-14T00:11:06;10.83;;;5.67;;
70071;SDS011;57434;42.794;23.302;2022-10-14T00:13:36;11.48;;;5.72;;
70071;SDS011;57434;42.794;23.302;2022-10-14T00:16:05;11.65;;;5.22;;
70071;SDS011;57434;42.794;23.302;2022-10-14T00:18:40;11.02;;;4.50;;
70071;SDS011;57434;42.794;23.302;2022-10-14T00:21:07;10.02;;;4.68;;
70071;SDS011;57434;42.794;23.302;2022-10-14T00:23:34;11.60;;;4.33;;
70071;SDS011;57434;42.794;23.302;2022-10-14T00:26:01;11.55;;;5.28;;
70071;SDS011;57434;42.794;23.302;2022-10-14T00:28:28;15.50;;;4.93;;
70071;SDS011;57434;42.794;23.302;2022-10-14T00:30:56;9.70;;;4.88;;
70071;SDS011;57434;42.794;23.302;2022-10-14T00:33:25;10.48;;;5.25;;
70071;SDS011;57434;42.794;23.302;2022-10-14T00:35:59;10.70;;;4.73;;
70071;SDS011;57434;42.794;23.302;2022-10-14T00:38:29;9.02;;;4.20;;
70071;SDS011;57434;42.794;23.302;2022-10-14T00:40:56;12.55;;;4.72;;
70071;SDS011;57434;42.794;23.302;2022-10-14T00:43:24;9.30;;;4.75;;
70071;SDS011;57434;42.794;23.302;2022-10-14T00:45:52;8.70;;;4.47;;
70071;SDS011;57434;42.794;23.302;2022-10-14T00:48:20;11.60;;;4.43;;
70071;SDS011;57434;42.794;23.302;2022-10-14T00:50:52;9.95;;;4.68;;
70071;SDS011;57434;42.794;23.302;2022-10-14T00:53:22;8.32;;;3.72;;
70071;SDS011;57434;42.794;23.302;2022-10-14T00:55:49;8.00;;;3.90;;
70071;SDS011;57434;42.794;23.302;2022-10-14T00:58:16;8.32;;;3.67;;
70071;SDS011;57434;42.794;23.302;2022-10-14T01:00:43;11.13;;;3.50;;
70071;SDS011;57434;42.794;23.302;2022-10-14T01:03:18;6.90;;;3.30;;
70071;SDS011;57434;42.794;23.302;2022-10-14T01:05:52;8.98;;;3.78;;
70071;SDS011;57434;42.794;23.302;2022-10-14T01:08:36;7.22;;;3.08;;
70071;SDS011;57434;42.794;23.302;2022-10-14T01:11:15;9.75;;;3.33;;
70071;SDS011;57434;42.794;23.302;2022-10-14T01:14:32;8.00;;;3.43;;
70071;SDS011;57434;42.794;23.302;2022-10-14T01:22:40;7.00;;;2.97;;
70071;SDS011;57434;42.794;23.302;2022-10-14T01:25:21;8.45;;;3.00;;
70071;SDS011;57434;42.794;23.302;2022-10-14T01:28:07;6.80;;;2.90;;
70071;SDS011;57434;42.794;23.302;2022-10-14T01:30:58;8.95;;;2.60;;
70071;SDS011;57434;42.794;23.302;2022-10-14T01:33:36;8.82;;;3.05;;
70071;SDS011;57434;42.794;23.302;2022-10-14T01:38:40;5.95;;;2.22;;
70071;SDS011;57434;42.794;23.302;2022-10-14T01:41:30;6.93;;;2.57;;
70071;SDS011;57434;42.794;23.302;2022-10-14T01:44:02;6.57;;;2.10;;
70071;SDS011;57434;42.794;23.302;2022-10-14T01:46:36;5.50;;;1.85;;
70071;SDS011;57434;42.794;23.302;2022-10-14T01:49:14;5.72;;;2.00;;
70071;SDS011;57434;42.794;23.302;2022-10-14T01:51:48;4.40;;;1.98;;
70071;SDS011;57434;42.794;23.302;2022-10-14T01:54:23;6.60;;;2.20;;
70071;SDS011;57434;42.794;23.302;2022-10-14T01:56:53;5.32;;;2.35;;
70071;SDS011;57434;42.794;23.302;2022-10-14T01:59:24;6.57;;;2.63;;
70071;SDS011;57434;42.794;23.302;2022-10-14T02:01:52;7.38;;;2.45;;
70071;SDS011;57434;42.794;23.302;2022-10-14T02:04:20;6.63;;;2.40;;
70071;SDS011;57434;42.794;23.302;2022-10-14T02:07:09;6.17;;;2.00;;
70071;SDS011;57434;42.794;23.302;2022-10-14T02:15:19;5.35;;;2.00;;
70071;SDS011;57434;42.794;23.302;2022-10-14T02:18:04;4.53;;;1.63;;
70071;SDS011;57434;42.794;23.302;2022-10-14T02:20:48;5.37;;;2.00;;
70071;SDS011;57434;42.794;23.302;2022-10-14T02:23:27;13.18;;;2.47;;
70071;SDS011;57434;42.794;23.302;2022-10-14T02:26:01;8.80;;;1.95;;
70071;SDS011;57434;42.794;23.302;2022-10-14T02:28:29;6.35;;;1.65;;
70071;SDS011;57434;42.794;23.302;2022-10-14T02:30:59;5.55;;;1.75;;
70071;SDS011;57434;42.794;23.302;2022-10-14T02:33:41;4.67;;;1.60;;
70071;SDS011;57434;42.794;23.302;2022-10-14T02:36:13;5.45;;;1.60;;
70071;SDS011;57434;42.794;23.302;2022-10-14T02:38:43;6.72;;;1.70;;
70071;SDS011;57434;42.794;23.302;2022-10-14T02:41:13;3.92;;;1.48;;
70071;SDS011;57434;42.794;23.302;2022-10-14T02:43:44;7.07;;;1.73;;
70071;SDS011;57434;42.794;23.302;2022-10-14T02:46:12;6.00;;;1.83;;
70071;SDS011;57434;42.794;23.302;2022-10-14T02:48:45;3.83;;;1.60;;
70071;SDS011;57434;42.794;23.302;2022-10-14T02:51:11;4.45;;;1.35;;
70071;SDS011;57434;42.794;23.302;2022-10-14T02:53:38;4.75;;;1.20;;
70071;SDS011;57434;42.794;23.302;2022-10-14T02:56:06;3.85;;;1.50;;
70071;SDS011;57434;42.794;23.302;2022-10-14T02:58:33;5.07;;;1.60;;
70071;SDS011;57434;42.794;23.302;2022-10-14T03:01:00;4.00;;;1.20;;
70071;SDS011;57434;42.794;23.302;2022-10-14T03:03:30;5.43;;;1.60;;
70071;SDS011;57434;42.794;23.302;2022-10-14T03:05:57;3.63;;;1.08;;
70071;SDS011;57434;42.794;23.302;2022-10-14T03:08:23;3.20;;;0.90;;
70071;SDS011;57434;42.794;23.302;2022-10-14T03:10:51;3.50;;;1.17;;
70071;SDS011;57434;42.794;23.302;2022-10-14T03:13:18;5.78;;;1.35;;
70071;SDS011;57434;42.794;23.302;2022-10-14T03:15:48;5.65;;;1.33;;
70071;SDS011;57434;42.794;23.302;2022-10-14T03:18:16;4.70;;;1.00;;
70071;SDS011;57434;42.794;23.302;2022-10-14T03:20:44;5.22;;;1.35;;
70071;SDS011;57434;42.794;23.302;2022-10-14T03:23:12;4.13;;;1.33;;
70071;SDS011;57434;42.794;23.302;2022-10-14T03:25:39;5.38;;;1.10;;
70071;SDS011;57434;42.794;23.302;2022-10-14T03:28:08;7.15;;;1.27;;
70071;SDS011;57434;42.794;23.302;2022-10-14T03:30:35;3.70;;;0.90;;
70071;SDS011;57434;42.794;23.302;2022-10-14T03:33:02;4.65;;;1.30;;
70071;SDS011;57434;42.794;23.302;2022-10-14T03:35:31;3.43;;;1.40;;
70071;SDS011;57434;42.794;23.302;2022-10-14T03:37:58;3.83;;;1.13;;
70071;SDS011;57434;42.794;23.302;2022-10-14T03:40:25;3.05;;;0.82;;
70071;SDS011;57434;42.794;23.302;2022-10-14T03:42:52;4.85;;;1.30;;
70071;SDS011;57434;42.794;23.302;2022-10-14T03:45:19;4.13;;;1.10;;
70071;SDS011;57434;42.794;23.302;2022-10-14T03:47:46;3.07;;;1.00;;
70071;SDS011;57434;42.794;23.302;2022-10-14T03:50:13;3.63;;;1.20;;
70071;SDS011;57434;42.794;23.302;2022-10-14T03:52:40;3.22;;;0.88;;
70071;SDS011;57434;42.794;23.302;2022-10-14T03:55:12;3.90;;;1.00;;
70071;SDS011;57434;42.794;23.302;2022-10-14T03:57:39;2.97;;;0.80;;
70071;SDS011;57434;42.794;23.302;2022-10-14T04:00:06;3.30;;;0.70;;
70071;SDS011;57434;42.794;23.302;2022-10-14T04:02:33;2.65;;;0.80;;
70071;SDS011;57434;42.794;23.302;2022-10-14T04:05:00;5.65;;;1.10;;
70071;SDS011;57434;42.794;23.302;2022-10-14T04:07:27;6.90;;;2.35;;
70071;SDS011;57434;42.794;23.302;2022-10-14T04:09:57;5.60;;;1.83;;
70071;SDS011;57434;42.794;23.302;2022-10-14T04:12:24;4.10;;;1.10;;
70071;SDS011;57434;42.794;23.302;2022-10-14T04:14:51;3.08;;;0.90;;
70071;SDS011;57434;42.794;23.302;2022-10-14T04:17:19;6.07;;;1.98;;
70071;SDS011;57434;42.794;23.302;2022-10-14T04:19:46;5.10;;;1.85;;
70071;SDS011;57434;42.794;23.302;2022-10-14T04:22:13;5.85;;;2.00;;
70071;SDS011;57434;42.794;23.302;2022-10-14T04:24:44;3.33;;;1.00;;
70071;SDS011;57434;42.794;23.302;2022-10-14T04:27:12;3.67;;;1.02;;
70071;SDS011;57434;42.794;23.302;2022-10-14T04:29:38;4.20;;;1.00;;
70071;SDS011;57434;42.794;23.302;2022-10-14T04:32:06;2.80;;;0.90;;
70071;SDS011;57434;42.794;23.302;2022-10-14T04:34:39;3.05;;;1.02;;
70071;SDS011;57434;42.794;23.302;2022-10-14T04:37:21;3.57;;;1.17;;
70071;SDS011;57434;42.794;23.302;2022-10-14T04:39:48;4.40;;;1.17;;
70071;SDS011;57434;42.794;23.302;2022-10-14T04:42:15;3.53;;;1.00;;
70071;SDS011;57434;42.794;23.302;2022-10-14T04:44:47;3.70;;;1.30;;
70071;SDS011;57434;42.794;23.302;2022-10-14T04:47:15;3.67;;;1.20;;
70071;SDS011;57434;42.794;23.302;2022-10-14T04:49:47;4.23;;;1.40;;
70071;SDS011;57434;42.794;23.302;2022-10-14T04:52:14;4.53;;;1.15;;
70071;SDS011;57434;42.794;23.302;2022-10-14T04:54:51;6.05;;;2.60;;
70071;SDS011;57434;42.794;23.302;2022-10-14T04:57:18;10.48;;;4.03;;
70071;SDS011;57434;42.794;23.302;2022-10-14T04:59:50;6.60;;;2.33;;
70071;SDS011;57434;42.794;23.302;2022-10-14T05:02:18;6.03;;;1.97;;
70071;SDS011;57434;42.794;23.302;2022-10-14T05:04:52;6.50;;;1.55;;
70071;SDS011;57434;42.794;23.302;2022-10-14T05:07:22;6.32;;;1.83;;
70071;SDS011;57434;42.794;23.302;2022-10-14T05:09:51;12.02;;;3.28;;
70071;SDS011;57434;42.794;23.302;2022-10-14T05:12:24;14.50;;;3.95;;
70071;SDS011;57434;42.794;23.302;2022-10-14T05:14:54;23.40;;;8.80;;
70071;SDS011;57434;42.794;23.302;2022-10-14T05:17:23;21.55;;;6.25;;
70071;SDS011;57434;42.794;23.302;2022-10-14T05:19:51;10.48;;;2.60;;
70071;SDS011;57434;42.794;23.302;2022-10-14T05:22:18;11.73;;;2.90;;
70071;SDS011;57434;42.794;23.302;2022-10-14T05:24:46;9.48;;;3.78;;
70071;SDS011;57434;42.794;23.302;2022-10-14T05:27:13;11.07;;;2.73;;
70071;SDS011;57434;42.794;23.302;2022-10-14T05:29:40;7.13;;;2.20;;
70071;SDS011;57434;42.794;23.302;2022-10-14T05:32:07;12.45;;;2.70;;
70071;SDS011;57434;42.794;23.302;2022-10-14T05:34:34;13.98;;;3.03;;
70071;SDS011;57434;42.794;23.302;2022-10-14T05:37:01;5.60;;;1.85;;
70071;SDS011;57434;42.794;23.302;2022-10-14T05:39:31;12.47;;;3.07;;
70071;SDS011;57434;42.794;23.302;2022-10-14T05:41:58;20.05;;;4.90;;
70071;SDS011;57434;42.794;23.302;2022-10-14T05:44:28;12.27;;;2.75;;
70071;SDS011;57434;42.794;23.302;2022-10-14T05:46:55;6.15;;;1.58;;
70071;SDS011;57434;42.794;23.302;2022-10-14T05:49:22;7.13;;;2.08;;
70071;SDS011;57434;42.794;23.302;2022-10-14T05:51:49;9.77;;;2.20;;
70071;SDS011;57434;42.794;23.302;2022-10-14T05:54:16;5.35;;;1.70;;
70071;SDS011;57434;42.794;23.302;2022-10-14T05:56:43;5.00;;;1.50;;
70071;SDS011;57434;42.794;23.302;2022-10-14T05:59:10;3.60;;;1.05;;
70071;SDS011;57434;42.794;23.302;2022-10-14T06:01:38;4.50;;;1.00;;
70071;SDS011;57434;42.794;23.302;2022-10-14T06:04:05;3.57;;;1.10;;
70071;SDS011;57434;42.794;23.302;2022-10-14T06:06:32;3.95;;;0.90;;
70071;SDS011;57434;42.794;23.302;2022-10-14T06:09:02;2.42;;;0.80;;
70071;SDS011;57434;42.794;23.302;2022-10-14T06:11:36;2.90;;;0.65;;
70071;SDS011;57434;42.794;23.302;2022-10-14T06:14:04;3.55;;;0.85;;
70071;SDS011;57434;42.794;23.302;2022-10-14T06:16:31;3.10;;;0.60;;
70071;SDS011;57434;42.794;23.302;2022-10-14T06:18:58;2.63;;;0.75;;
70071;SDS011;57434;42.794;23.302;2022-10-14T06:21:26;4.20;;;0.90;;
70071;SDS011;57434;42.794;23.302;2022-10-14T06:23:53;2.58;;;0.77;;
70071;SDS011;57434;42.794;23.302;2022-10-14T06:26:20;3.42;;;0.82;;
70071;SDS011;57434;42.794;23.302;2022-10-14T06:28:48;2.63;;;0.50;;
70071;SDS011;57434;42.794;23.302;2022-10-14T06:31:15;3.58;;;0.80;;
70071;SDS011;57434;42.794;23.302;2022-10-14T06:33:42;4.80;;;0.63;;
70071;SDS011;57434;42.794;23.302;2022-10-14T06:36:10;3.10;;;0.60;;
70071;SDS011;57434;42.794;23.302;2022-10-14T06:38:37;3.47;;;0.60;;
70071;SDS011;57434;42.794;23.302;2022-10-14T06:41:06;4.03;;;1.00;;
70071;SDS011;57434;42.794;23.302;2022-10-14T06:43:33;2.67;;;0.60;;
70071;SDS011;57434;42.794;23.302;2022-10-14T06:46:00;1.98;;;0.50;;
70071;SDS011;57434;42.794;23.302;2022-10-14T06:48:28;1.00;;;0.35;;
70071;SDS011;57434;42.794;23.302;2022-10-14T06:50:59;1.15;;;0.40;;
70071;SDS011;57434;42.794;23.302;2022-10-14T06:53:27;2.33;;;0.70;;
70071;SDS011;57434;42.794;23.302;2022-10-14T06:56:02;1.45;;;0.43;;
70071;SDS011;57434;42.794;23.302;2022-10-14T06:58:31;3.13;;;0.80;;
70071;SDS011;57434;42.794;23.302;2022-10-14T07:01:00;3.03;;;0.88;;
70071;SDS011;57434;42.794;23.302;2022-10-14T07:03:28;3.80;;;0.80;;
70071;SDS011;57434;42.794;23.302;2022-10-14T07:05:56;3.00;;;0.80;;
70071;SDS011;57434;42.794;23.302;2022-10-14T07:08:23;3.45;;;1.20;;
70071;SDS011;57434;42.794;23.302;2022-10-14T07:10:50;9.73;;;1.35;;
70071;SDS011;57434;42.794;23.302;2022-10-14T07:13:17;3.10;;;1.20;;
70071;SDS011;57434;42.794;23.302;2022-10-14T07:15:48;3.88;;;1.23;;
70071;SDS011;57434;42.794;23.302;2022-10-14T07:18:15;5.50;;;1.57;;
70071;SDS011;57434;42.794;23.302;2022-10-14T07:20:42;3.80;;;1.40;;
70071;SDS011;57434;42.794;23.302;2022-10-14T07:23:10;4.88;;;1.70;;
70071;SDS011;57434;42.794;23.302;2022-10-14T07:25:37;3.05;;;0.90;;
70071;SDS011;57434;42.794;23.302;2022-10-14T07:28:05;2.05;;;0.70;;
70071;SDS011;57434;42.794;23.302;2022-10-14T07:30:33;3.70;;;1.23;;
70071;SDS011;57434;42.794;23.302;2022-10-14T07:33:00;3.25;;;1.00;;
70071;SDS011;57434;42.794;23.302;2022-10-14T07:35:28;3.15;;;1.13;;
70071;SDS011;57434;42.794;23.302;2022-10-14T07:37:56;3.53;;;1.08;;
70071;SDS011;57434;42.794;23.302;2022-10-14T07:40:25;5.97;;;1.58;;
70071;SDS011;57434;42.794;23.302;2022-10-14T07:42:53;5.80;;;1.40;;
70071;SDS011;57434;42.794;23.302;2022-10-14T07:45:20;4.43;;;1.25;;
70071;SDS011;57434;42.794;23.302;2022-10-14T07:47:50;3.67;;;1.10;;
70071;SDS011;57434;42.794;23.302;2022-10-14T07:50:18;3.45;;;1.20;;
70071;SDS011;57434;42.794;23.302;2022-10-14T07:52:45;6.00;;;1.48;;
70071;SDS011;57434;42.794;23.302;2022-10-14T07:55:13;4.53;;;1.70;;
70071;SDS011;57434;42.794;23.302;2022-10-14T07:57:40;4.10;;;1.73;;
70071;SDS011;57434;42.794;23.302;2022-10-14T08:00:08;4.40;;;1.48;;
70071;SDS011;57434;42.794;23.302;2022-10-14T08:02:36;5.15;;;1.70;;
70071;SDS011;57434;42.794;23.302;2022-10-14T08:05:04;4.47;;;1.55;;
70071;SDS011;57434;42.794;23.302;2022-10-14T08:07:51;5.60;;;2.43;;
70071;SDS011;57434;42.794;23.302;2022-10-14T08:10:21;7.15;;;2.08;;
70071;SDS011;57434;42.794;23.302;2022-10-14T08:12:49;7.15;;;2.70;;
70071;SDS011;57434;42.794;23.302;2022-10-14T08:15:16;4.82;;;1.80;;
70071;SDS011;57434;42.794;23.302;2022-10-14T08:17:44;9.40;;;2.60;;
70071;SDS011;57434;42.794;23.302;2022-10-14T08:20:12;5.17;;;2.20;;
70071;SDS011;57434;42.794;23.302;2022-10-14T08:22:39;5.65;;;2.35;;
70071;SDS011;57434;42.794;23.302;2022-10-14T08:25:06;5.13;;;1.67;;
70071;SDS011;57434;42.794;23.302;2022-10-14T08:27:34;5.50;;;1.92;;
70071;SDS011;57434;42.794;23.302;2022-10-14T08:30:02;4.88;;;1.90;;
70071;SDS011;57434;42.794;23.302;2022-10-14T08:32:36;2.77;;;1.00;;
70071;SDS011;57434;42.794;23.302;2022-10-14T08:35:03;4.65;;;1.90;;
70071;SDS011;57434;42.794;23.302;2022-10-14T08:37:31;4.43;;;1.60;;
70071;SDS011;57434;42.794;23.302;2022-10-14T08:39:59;3.42;;;1.00;;
70071;SDS011;57434;42.794;23.302;2022-10-14T08:45:10;5.43;;;1.63;;
70071;SDS011;57434;42.794;23.302;2022-10-14T08:47:45;4.15;;;1.55;;
70071;SDS011;57434;42.794;23.302;2022-10-14T08:50:22;4.85;;;1.67;;
70071;SDS011;57434;42.794;23.302;2022-10-14T08:58:30;5.00;;;1.73;;
70071;SDS011;57434;42.794;23.302;2022-10-14T09:01:05;12.30;;;2.00;;
70071;SDS011;57434;42.794;23.302;2022-10-14T09:03:41;3.95;;;1.42;;
70071;SDS011;57434;42.794;23.302;2022-10-14T09:06:14;4.90;;;1.80;;
70071;SDS011;57434;42.794;23.302;2022-10-14T09:08:50;5.78;;;2.25;;
70071;SDS011;57434;42.794;23.302;2022-10-14T09:11:40;4.87;;;1.33;;
70071;SDS011;57434;42.794;23.302;2022-10-14T09:14:21;11.52;;;2.30;;
70071;SDS011;57434;42.794;23.302;2022-10-14T09:16:54;5.75;;;1.92;;
70071;SDS011;57434;42.794;23.302;2022-10-14T09:19:33;4.70;;;1.98;;
70071;SDS011;57434;42.794;23.302;2022-10-14T09:22:10;4.13;;;1.60;;
70071;SDS011;57434;42.794;23.302;2022-10-14T09:24:40;6.83;;;2.90;;
70071;SDS011;57434;42.794;23.302;2022-10-14T09:27:10;7.93;;;2.75;;
70071;SDS011;57434;42.794;23.302;2022-10-14T09:29:45;6.45;;;2.78;;
70071;SDS011;57434;42.794;23.302;2022-10-14T09:32:32;5.55;;;2.60;;
70071;SDS011;57434;42.794;23.302;2022-10-14T09:35:13;6.20;;;2.63;;
70071;SDS011;57434;42.794;23.302;2022-10-14T09:37:57;5.87;;;2.30;;
70071;SDS011;57434;42.794;23.302;2022-10-14T09:40:39;7.25;;;3.22;;
70071;SDS011;57434;42.794;23.302;2022-10-14T09:43:15;5.68;;;2.38;;
70071;SDS011;57434;42.794;23.302;2022-10-14T09:45:46;7.35;;;2.13;;
70071;SDS011;57434;42.794;23.302;2022-10-14T09:48:41;6.78;;;2.83;;
70071;SDS011;57434;42.794;23.302;2022-10-14T09:53:56;7.68;;;3.10;;
70071;SDS011;57434;42.794;23.302;2022-10-14T09:56:30;5.05;;;2.13;;
70071;SDS011;57434;42.794;23.302;2022-10-14T09:59:21;5.80;;;2.78;;
70071;SDS011;57434;42.794;23.302;2022-10-14T10:01:52;5.72;;;2.85;;
70071;SDS011;57434;42.794;23.302;2022-10-14T10:06:58;5.25;;;2.38;;
70071;SDS011;57434;42.794;23.302;2022-10-14T10:09:27;6.32;;;2.80;;
70071;SDS011;57434;42.794;23.302;2022-10-14T10:11:55;7.72;;;2.95;;
70071;SDS011;57434;42.794;23.302;2022-10-14T10:19:36;8.15;;;3.35;;
70071;SDS011;57434;42.794;23.302;2022-10-14T10:30:20;6.87;;;3.10;;
70071;SDS011;57434;42.794;23.302;2022-10-14T10:35:59;8.45;;;3.10;;
70071;SDS011;57434;42.794;23.302;2022-10-14T10:39:20;5.10;;;2.33;;
70071;SDS011;57434;42.794;23.302;2022-10-14T10:47:22;7.70;;;3.05;;
70071;SDS011;57434;42.794;23.302;2022-10-14T11:01:00;5.93;;;2.25;;
70071;SDS011;57434;42.794;23.302;2022-10-14T11:03:48;5.35;;;2.50;;
70071;SDS011;57434;42.794;23.302;2022-10-14T11:06:30;5.78;;;2.50;;
70071;SDS011;57434;42.794;23.302;2022-10-14T11:09:01;5.85;;;2.70;;
70071;SDS011;57434;42.794;23.302;2022-10-14T11:11:38;4.40;;;2.07;;
70071;SDS011;57434;42.794;23.302;2022-10-14T11:17:08;5.55;;;2.40;;
70071;SDS011;57434;42.794;23.302;2022-10-14T11:19:51;4.50;;;1.80;;
70071;SDS011;57434;42.794;23.302;2022-10-14T11:22:41;4.82;;;2.10;;
70071;SDS011;57434;42.794;23.302;2022-10-14T11:31:24;5.82;;;1.63;;
70071;SDS011;57434;42.794;23.302;2022-10-14T11:39:47;4.50;;;1.70;;
70071;SDS011;57434;42.794;23.302;2022-10-14T11:48:04;4.00;;;1.30;;
70071;SDS011;57434;42.794;23.302;2022-10-14T11:50:44;3.67;;;1.33;;
70071;SDS011;57434;42.794;23.302;2022-10-14T11:56:16;3.42;;;1.30;;
70071;SDS011;57434;42.794;23.302;2022-10-14T11:58:56;4.53;;;1.50;;
70071;SDS011;57434;42.794;23.302;2022-10-14T12:01:26;3.60;;;1.30;;
70071;SDS011;57434;42.794;23.302;2022-10-14T12:04:04;7.03;;;1.50;;
70071;SDS011;57434;42.794;23.302;2022-10-14T12:06:42;3.40;;;1.13;;
70071;SDS011;57434;42.794;23.302;2022-10-14T12:09:29;4.03;;;1.40;;
70071;SDS011;57434;42.794;23.302;2022-10-14T12:12:27;3.60;;;0.90;;
70071;SDS011;57434;42.794;23.302;2022-10-14T12:15:06;4.30;;;1.10;;
70071;SDS011;57434;42.794;23.302;2022-10-14T12:17:44;3.67;;;1.42;;
70071;SDS011;57434;42.794;23.302;2022-10-14T12:21:06;3.57;;;1.27;;
70071;SDS011;57434;42.794;23.302;2022-10-14T12:23:10;6.35;;;1.02;;
70071;SDS011;57434;42.794;23.302;2022-10-14T12:25:50;3.53;;;1.05;;
70071;SDS011;57434;42.794;23.302;2022-10-14T12:28:26;2.80;;;1.00;;
70071;SDS011;57434;42.794;23.302;2022-10-14T12:31:08;3.92;;;1.20;;
70071;SDS011;57434;42.794;23.302;2022-10-14T12:36:42;2.15;;;0.90;;
70071;SDS011;57434;42.794;23.302;2022-10-14T12:41:50;3.47;;;1.23;;
70071;SDS011;57434;42.794;23.302;2022-10-14T12:44:35;4.10;;;1.25;;
70071;SDS011;57434;42.794;23.302;2022-10-14T12:47:17;4.40;;;1.20;;
70071;SDS011;57434;42.794;23.302;2022-10-14T12:49:52;3.17;;;1.00;;
70071;SDS011;57434;42.794;23.302;2022-10-14T12:52:23;2.78;;;0.88;;
70071;SDS011;57434;42.794;23.302;2022-10-14T12:54:54;2.67;;;0.90;;
70071;SDS011;57434;42.794;23.302;2022-10-14T12:57:28;3.90;;;1.08;;
70071;SDS011;57434;42.794;23.302;2022-10-14T13:00:28;3.50;;;0.73;;
70071;SDS011;57434;42.794;23.302;2022-10-14T13:02:52;3.10;;;0.80;;
70071;SDS011;57434;42.794;23.302;2022-10-14T13:10:47;4.07;;;1.45;;
70071;SDS011;57434;42.794;23.302;2022-10-14T13:16:05;3.47;;;1.20;;
70071;SDS011;57434;42.794;23.302;2022-10-14T13:24:14;3.72;;;1.10;;
70071;SDS011;57434;42.794;23.302;2022-10-14T13:26:50;3.60;;;1.20;;
70071;SDS011;57434;42.794;23.302;2022-10-14T13:37:43;4.72;;;1.40;;
70071;SDS011;57434;42.794;23.302;2022-10-14T13:42:55;3.63;;;1.15;;
70071;SDS011;57434;42.794;23.302;2022-10-14T13:46:06;2.30;;;0.77;;
70071;SDS011;57434;42.794;23.302;2022-10-14T13:48:42;2.95;;;0.93;;
70071;SDS011;57434;42.794;23.302;2022-10-14T13:56:43;4.55;;;0.98;;
70071;SDS011;57434;42.794;23.302;2022-10-14T13:59:41;3.45;;;0.80;;
70071;SDS011;57434;42.794;23.302;2022-10-14T14:02:29;6.82;;;1.70;;
70071;SDS011;57434;42.794;23.302;2022-10-14T14:04:56;4.97;;;1.90;;
70071;SDS011;57434;42.794;23.302;2022-10-14T14:07:26;4.07;;;1.40;;
70071;SDS011;57434;42.794;23.302;2022-10-14T14:10:21;7.90;;;2.40;;
70071;SDS011;57434;42.794;23.302;2022-10-14T14:12:50;9.90;;;2.60;;
70071;SDS011;57434;42.794;23.302;2022-10-14T14:15:26;6.55;;;2.33;;
70071;SDS011;57434;42.794;23.302;2022-10-14T14:17:54;7.00;;;2.03;;
70071;SDS011;57434;42.794;23.302;2022-10-14T14:20:23;6.80;;;2.63;;
70071;SDS011;57434;42.794;23.302;2022-10-14T14:22:51;7.13;;;2.97;;
70071;SDS011;57434;42.794;23.302;2022-10-14T14:28:10;5.82;;;2.25;;
70071;SDS011;57434;42.794;23.302;2022-10-14T14:30:39;7.03;;;2.45;;
70071;SDS011;57434;42.794;23.302;2022-10-14T14:33:09;4.60;;;1.83;;
70071;SDS011;57434;42.794;23.302;2022-10-14T14:35:39;7.25;;;2.30;;
70071;SDS011;57434;42.794;23.302;2022-10-14T14:38:22;7.38;;;2.00;;
70071;SDS011;57434;42.794;23.302;2022-10-14T14:41:28;6.38;;;2.25;;
70071;SDS011;57434;42.794;23.302;2022-10-14T14:43:52;5.75;;;1.90;;
70071;SDS011;57434;42.794;23.302;2022-10-14T14:46:41;6.93;;;2.23;;
70071;SDS011;57434;42.794;23.302;2022-10-14T14:49:16;9.18;;;1.65;;
70071;SDS011;57434;42.794;23.302;2022-10-14T14:51:48;4.63;;;1.30;;
70071;SDS011;57434;42.794;23.302;2022-10-14T14:54:16;4.40;;;1.42;;
70071;SDS011;57434;42.794;23.302;2022-10-14T14:56:49;2.30;;;0.80;;
70071;SDS011;57434;42.794;23.302;2022-10-14T15:02:03;11.27;;;2.50;;
70071;SDS011;57434;42.794;23.302;2022-10-14T15:04:38;9.85;;;4.10;;
70071;SDS011;57434;42.794;23.302;2022-10-14T15:09:47;4.88;;;2.03;;
70071;SDS011;57434;42.794;23.302;2022-10-14T15:12:17;6.23;;;2.07;;
70071;SDS011;57434;42.794;23.302;2022-10-14T15:14:48;6.60;;;2.10;;
70071;SDS011;57434;42.794;23.302;2022-10-14T15:19:52;9.52;;;3.22;;
70071;SDS011;57434;42.794;23.302;2022-10-14T15:22:21;7.50;;;1.90;;
70071;SDS011;57434;42.794;23.302;2022-10-14T15:25:08;5.67;;;1.63;;
70071;SDS011;57434;42.794;23.302;2022-10-14T15:27:55;7.05;;;2.95;;
70071;SDS011;57434;42.794;23.302;2022-10-14T15:32:52;10.63;;;4.20;;
70071;SDS011;57434;42.794;23.302;2022-10-14T15:35:21;6.50;;;2.50;;
70071;SDS011;57434;42.794;23.302;2022-10-14T15:37:49;6.20;;;2.17;;
70071;SDS011;57434;42.794;23.302;2022-10-14T15:40:20;10.27;;;2.75;;
70071;SDS011;57434;42.794;23.302;2022-10-14T15:42:51;11.98;;;2.65;;
70071;SDS011;57434;42.794;23.302;2022-10-14T15:45:18;9.93;;;2.85;;
70071;SDS011;57434;42.794;23.302;2022-10-14T15:47:46;8.57;;;2.65;;
70071;SDS011;57434;42.794;23.302;2022-10-14T15:50:20;5.10;;;2.07;;
70071;SDS011;57434;42.794;23.302;2022-10-14T15:52:49;10.27;;;3.28;;
70071;SDS011;57434;42.794;23.302;2022-10-14T15:55:35;11.30;;;3.47;;
70071;SDS011;57434;42.794;23.302;2022-10-14T15:58:02;8.18;;;3.22;;
70071;SDS011;57434;42.794;23.302;2022-10-14T16:00:29;15.55;;;6.40;;
70071;SDS011;57434;42.794;23.302;2022-10-14T16:02:57;29.20;;;11.57;;
70071;SDS011;57434;42.794;23.302;2022-10-14T16:05:25;30.10;;;12.10;;
70071;SDS011;57434;42.794;23.302;2022-10-14T16:07:52;33.70;;;13.23;;
70071;SDS011;57434;42.794;23.302;2022-10-14T16:10:20;44.53;;;19.45;;
70071;SDS011;57434;42.794;23.302;2022-10-14T16:12:49;81.25;;;30.92;;
70071;SDS011;57434;42.794;23.302;2022-10-14T16:15:29;62.13;;;26.27;;
70071;SDS011;57434;42.794;23.302;2022-10-14T16:18:04;32.50;;;12.82;;
70071;SDS011;57434;42.794;23.302;2022-10-14T16:20:31;33.30;;;13.20;;
70071;SDS011;57434;42.794;23.302;2022-10-14T16:22:58;32.20;;;12.20;;
70071;SDS011;57434;42.794;23.302;2022-10-14T16:25:29;31.83;;;10.63;;
70071;SDS011;57434;42.794;23.302;2022-10-14T16:28:02;20.23;;;7.17;;
70071;SDS011;57434;42.794;23.302;2022-10-14T16:30:35;21.27;;;6.85;;
70071;SDS011;57434;42.794;23.302;2022-10-14T16:33:06;14.82;;;5.88;;
70071;SDS011;57434;42.794;23.302;2022-10-14T16:35:33;13.23;;;5.88;;
70071;SDS011;57434;42.794;23.302;2022-10-14T16:38:00;13.35;;;6.10;;
70071;SDS011;57434;42.794;23.302;2022-10-14T16:40:27;13.10;;;5.43;;
70071;SDS011;57434;42.794;23.302;2022-10-14T16:43:02;15.90;;;6.45;;
70071;SDS011;57434;42.794;23.302;2022-10-14T16:45:29;12.65;;;3.95;;
70071;SDS011;57434;42.794;23.302;2022-10-14T16:47:56;8.95;;;3.10;;
70071;SDS011;57434;42.794;23.302;2022-10-14T16:50:23;9.27;;;3.03;;
70071;SDS011;57434;42.794;23.302;2022-10-14T16:52:50;8.30;;;3.20;;
70071;SDS011;57434;42.794;23.302;2022-10-14T16:55:17;11.80;;;4.60;;
70071;SDS011;57434;42.794;23.302;2022-10-14T16:57:45;12.45;;;4.60;;
70071;SDS011;57434;42.794;23.302;2022-10-14T17:00:13;6.10;;;2.45;;
70071;SDS011;57434;42.794;23.302;2022-10-14T17:02:41;8.82;;;3.35;;
70071;SDS011;57434;42.794;23.302;2022-10-14T17:05:08;8.90;;;2.50;;
70071;SDS011;57434;42.794;23.302;2022-10-14T17:07:35;7.93;;;2.78;;
70071;SDS011;57434;42.794;23.302;2022-10-14T17:10:03;6.93;;;2.35;;
70071;SDS011;57434;42.794;23.302;2022-10-14T17:12:30;7.28;;;2.40;;